ADDS METAR Data INFO
IDs: Format: Raw Decoded Include TAF

Data at: 0126 UTC 23 Nov 2017

METAR for:PANC (Anchorage Intl, AK, US)
Text:PANC 230053Z 00000KT 10SM FEW010 SCT150 BKN200 M12/M14 A2962 RMK AO2 SLP034 T11221144
Temperature:-12.2°C ( 10°F)
Dewpoint:-14.4°C ( 6°F) [RH = 84%]
Pressure (altimeter):29.62 inches Hg (1003.1 mb) [Sea level pressure: 1003.4 mb]
Winds:calm
Visibility:10 or more sm (16+ km)
Ceiling:20000 feet AGL
Clouds: few clouds at 1000 feet AGL, scattered clouds at 15000 feet AGL, broken clouds at 20000 feet AGL
Text:PANC 222353Z 34006KT 10SM FEW035 BKN200 M11/M13 A2968 RMK AO2 SLP055 4/007 I6000 T11061128 11089 21172 56024
Temperature:-10.6°C ( 13°F)
Dewpoint:-12.8°C ( 9°F) [RH = 84%]
Pressure (altimeter):29.68 inches Hg (1005.2 mb) [Sea level pressure: 1005.5 mb]
Winds:from the NNW (340 degrees) at 7 MPH (6 knots; 3.1 m/s)
Visibility:10 or more sm (16+ km)
Ceiling:20000 feet AGL
Clouds: few clouds at 3500 feet AGL, broken clouds at 20000 feet AGL
Text:PANC 222253Z 30003KT 10SM SCT016 SCT120 BKN200 M10/M13 A2968 RMK AO2 SLP055 T11001133
Temperature:-10.0°C ( 14°F)
Dewpoint:-13.3°C ( 8°F) [RH = 77%]
Pressure (altimeter):29.68 inches Hg (1005.2 mb) [Sea level pressure: 1005.5 mb]
Winds:from the WNW (300 degrees) at 3 MPH (3 knots; 1.5 m/s)
Visibility:10 or more sm (16+ km)
Ceiling:20000 feet AGL
Clouds: scattered clouds at 1600 feet AGL, scattered clouds at 12000 feet AGL, broken clouds at 20000 feet AGL
Text:PANC 222153Z 00000KT 10SM SCT015 SCT120 M11/M13 A2972 RMK AO2 SLP067 T11111133
Temperature:-11.1°C ( 12°F)
Dewpoint:-13.3°C ( 8°F) [RH = 84%]
Pressure (altimeter):29.72 inches Hg (1006.5 mb) [Sea level pressure: 1006.7 mb]
Winds:calm
Visibility:10 or more sm (16+ km)
Ceiling:at least 12,000 feet AGL
Clouds: scattered clouds at 1500 feet AGL, scattered clouds at 12000 feet AGL
Text:PANC 222053Z 08004KT 10SM FEW005 FEW120 M12/M14 A2975 RMK AO2 SLP079 I3000 T11171144 58022
Temperature:-11.7°C ( 11°F)
Dewpoint:-14.4°C ( 6°F) [RH = 80%]
Pressure (altimeter):29.75 inches Hg (1007.5 mb) [Sea level pressure: 1007.9 mb]
Winds:from the E (80 degrees) at 5 MPH (4 knots; 2.1 m/s)
Visibility:10 or more sm (16+ km)
Ceiling:at least 12,000 feet AGL
Clouds: few clouds at 500 feet AGL, few clouds at 12000 feet AGL
Text:PANC 221953Z 13003KT 10SM FEW003 M14/M16 A2978 RMK AO2 SLP088 LOW ST W-N T11391161
Temperature:-13.9°C ( 7°F)
Dewpoint:-16.1°C ( 3°F) [RH = 83%]
Pressure (altimeter):29.78 inches Hg (1008.5 mb) [Sea level pressure: 1008.8 mb]
Winds:from the SE (130 degrees) at 3 MPH (3 knots; 1.5 m/s)
Visibility:10 or more sm (16+ km)
Ceiling:at least 12,000 feet AGL
Clouds: few clouds at 300 feet AGL

TAF for:PANC (Anchorage Intl, AK, US) issued at 2325 UTC 22 Nov 2017
Text:PANC 222325Z 2300/2406 VRB05KT P6SM SCT015
Forecast period:0000 to 1200 UTC 23 November 2017
Forecast type:FROM: standard forecast or significant change
Winds:variable direction winds at 6 MPH (5 knots; 2.6 m/s)
Visibility:6 or more sm (10+ km)
Ceiling:at least 12,000 feet AGL
Clouds: scattered clouds at 1500 feet AGL
Text:FM231200 02005KT P6SM SCT030 BKN050
Forecast period:1200 UTC 23 November 2017 to 0600 UTC 24 November 2017
Forecast type:FROM: standard forecast or significant change
Winds:from the NNE (20 degrees) at 6 MPH (5 knots; 2.6 m/s)
Visibility:6 or more sm (10+ km)
Ceiling:5000 feet AGL
Clouds: scattered clouds at 3000 feet AGL, broken clouds at 5000 feet AGL